• Join FlightAware (Why Join?)
  • Login
  • US Flag 
05:43PM EDT


 

Airport Tracker/Info


-or-


 

Live Flight TrackerFlight Track Log ✈ EMD24 ✈ 24-Apr-2012 ✈ KADT - KAPA

Flight Track Log - Related Links

Times and Time Zones

All times are in EDT time to prevent confusion due to time zone crossing. See the EMD24 flight status page for this flight to view local times or setup timezone preferences in your user account.

Time Position Orientation Groundspeed Altitude Reporting Facility
EDT Latitude Longitude Course Direction KTS MPH feet Rate Location/Type
12:14PM 39.8678 -101.2158 266° West 203 234 8,800  Level Denver Center
12:15PM 39.8642 -101.2756 262° West 183 211 10,200 1,500 Climbing Denver Center
12:16PM 39.8583 -101.3328 266° West 158 182 11,800 1,380 Climbing Denver Center
12:17PM 39.8550 -101.3953 265° West 163 188 13,000 1,080 Climbing Denver Center
12:18PM 39.8511 -101.4497 264° West 163 188 14,000 480 Climbing Denver Center
12:19PM 39.8456 -101.5178 261° West 177 204 14,000  Level Denver Center
12:20PM 39.8347 -101.6050 264° West 217 250 14,100  Climbing Denver Center
12:21PM 39.8278 -101.6842 269° West 222 255 14,100  Level Denver Center
12:22PM 39.8264 -101.7544 269° West 222 255 14,100  Level Denver Center
12:23PM 39.8253 -101.8303 265° West 217 250 14,100  Level Denver Center
12:24PM 39.8203 -101.9117 265° West 217 250 14,100  Level Denver Center
12:25PM 39.8150 -101.9906 264° West 217 250 14,100  Level Denver Center
12:26PM 39.8092 -102.0586 263° West 217 250 14,100  Level Denver Center
12:27PM 39.8019 -102.1400 266° West 222 255 14,100  Level Denver Center
12:28PM 39.7969 -102.2269 261° West 227 261 14,100  Level Denver Center
12:29PM 39.7872 -102.3086 266° West 222 255 14,100  Level Denver Center
12:30PM 39.7836 -102.3792 265° West 222 255 14,100 -60 Level Denver Center
12:31PM 39.7781 -102.4606 264° West 222 255 14,000 -60 Descending Denver Center
12:32PM 39.7708 -102.5503 261° West 222 255 14,000  Level Denver Center
12:33PM 39.7608 -102.6292 267° West 228 262 14,000  Level Denver Center
12:34PM 39.7575 -102.7158 265° West 238 274 14,100  Climbing Denver Center
12:35PM 39.7519 -102.7969 266° West 238 274 14,000  Descending Denver Center
12:36PM 39.7481 -102.8783 263° West 238 274 14,100  Climbing Denver Center
12:37PM 39.7403 -102.9569 264° West 238 274 14,100 -60 Level Denver Center
12:38PM 39.7342 -103.0303 266° West 233 268 14,000  Descending Denver Center
12:39PM 39.7303 -103.1117 263° West 233 268 14,100  Climbing Denver Center
12:40PM 39.7222 -103.1928 264° West 233 268 14,100  Level Denver Center
12:41PM 39.7161 -103.2717 264° West 233 268 14,100  Level Denver Center
12:42PM 39.7100 -103.3528 266° West 233 268 14,100  Level Denver Center
12:43PM 39.7058 -103.4314 263° West 233 268 14,100  Level Denver Center
12:44PM 39.6975 -103.5181 262° West 228 262 14,100  Level Denver Center
12:45PM 39.6892 -103.5994 262° West 228 262 14,100  Level Denver Center
12:46PM 39.6808 -103.6781 262° West 228 262 14,100  Level Denver Center
12:47PM 39.6722 -103.7592 260° West 228 262 14,100  Level Denver Center
12:48PM 39.6617 -103.8406 260° West 228 262 14,100 -300 Level Denver Center
12:49PM 39.6508 -103.9219 255° West 233 268 13,500 -840 Descending Denver Center
12:50PM 39.6339 -104.0061 254° West 244 281 12,500 -1,020 Descending Denver Center
12:51PM 39.6150 -104.0931 256° West 244 281 11,500 -1,020 Descending Denver Center
12:52PM 39.5981 -104.1800 254° West 244 281 10,500 -720 Descending Denver Center
12:53PM 39.5828 -104.2506 258° West 239 275 10,100 -240 Descending Denver Center
12:54PM 39.5694 -104.3289 254° West 228 262 10,100 -120 Level Denver Center
12:55PM 39.5500 -104.4167 270° West 209 241 9,900 -480 Descending Denver TRACON
12:56PM 39.5500 -104.4833 255° West 218 251 9,200 -600 Descending Denver TRACON
12:57PM 39.5333 -104.5667 270° West 205 236 8,700 -480 Descending Denver TRACON
12:58PM 39.5333 -104.6333 270° West 196 226 8,300 -480 Descending Denver TRACON
12:59PM 39.5333 -104.7000 288° West 180 207 7,800 -600 Descending Denver TRACON
01:00PM 39.5500 -104.7667 293° West 172 198 7,100 -900 Descending Denver TRACON
01:01PM 39.5667 -104.8167 293° West 146 168 6,200 -900 Descending Denver TRACON